sensor_id;sensor_type;location;lat;lon;timestamp;pressure;altitude;pressure_sealevel;temperature;humidity
12073;BME280;6098;49.004;8.372;2022-12-18T00:01:20;101637.50;;;-6.30;83.65
12073;BME280;6098;49.004;8.372;2022-12-18T00:16:10;101646.72;;;-6.35;83.49
12073;BME280;6098;49.004;8.372;2022-12-18T00:31:00;101635.65;;;-6.41;81.41
12073;BME280;6098;49.004;8.372;2022-12-18T00:45:51;101664.03;;;-6.75;80.51
12073;BME280;6098;49.004;8.372;2022-12-18T01:00:40;101645.79;;;-6.88;80.26
12073;BME280;6098;49.004;8.372;2022-12-18T01:15:28;101661.20;;;-6.96;80.59
12073;BME280;6098;49.004;8.372;2022-12-18T01:30:16;101639.23;;;-6.89;80.43
12073;BME280;6098;49.004;8.372;2022-12-18T02:00:08;101638.25;;;-6.84;79.82
12073;BME280;6098;49.004;8.372;2022-12-18T02:15:10;101663.59;;;-6.83;79.88
12073;BME280;6098;49.004;8.372;2022-12-18T02:45:09;101670.54;;;-6.82;80.08
12073;BME280;6098;49.004;8.372;2022-12-18T03:00:04;101671.19;;;-6.61;80.91
12073;BME280;6098;49.004;8.372;2022-12-18T03:14:57;101677.05;;;-6.47;81.50
12073;BME280;6098;49.004;8.372;2022-12-18T03:29:47;101673.13;;;-6.65;79.75
12073;BME280;6098;49.004;8.372;2022-12-18T03:44:39;101668.36;;;-6.91;79.71
12073;BME280;6098;49.004;8.372;2022-12-18T03:59:27;101662.73;;;-7.08;81.12
12073;BME280;6098;49.004;8.372;2022-12-18T04:14:15;101666.70;;;-7.22;82.66
12073;BME280;6098;49.004;8.372;2022-12-18T04:29:04;101660.25;;;-7.31;83.88
12073;BME280;6098;49.004;8.372;2022-12-18T04:43:53;101669.45;;;-7.27;86.10
12073;BME280;6098;49.004;8.372;2022-12-18T04:58:43;101664.89;;;-7.24;88.35
12073;BME280;6098;49.004;8.372;2022-12-18T05:13:31;101684.94;;;-7.11;89.87
12073;BME280;6098;49.004;8.372;2022-12-18T05:28:20;101684.32;;;-6.90;89.71
12073;BME280;6098;49.004;8.372;2022-12-18T05:43:10;101687.44;;;-6.71;90.25
12073;BME280;6098;49.004;8.372;2022-12-18T05:57:59;101686.14;;;-6.54;89.29
12073;BME280;6098;49.004;8.372;2022-12-18T06:12:49;101699.66;;;-6.25;88.70
12073;BME280;6098;49.004;8.372;2022-12-18T06:27:38;101714.47;;;-6.04;88.54
12073;BME280;6098;49.004;8.372;2022-12-18T06:42:28;101743.03;;;-5.92;88.22
12073;BME280;6098;49.004;8.372;2022-12-18T06:57:17;101742.39;;;-5.78;87.85
12073;BME280;6098;49.004;8.372;2022-12-18T07:12:07;101757.48;;;-5.68;88.44
12073;BME280;6098;49.004;8.372;2022-12-18T07:26:56;101749.98;;;-5.63;88.63
12073;BME280;6098;49.004;8.372;2022-12-18T07:41:45;101767.20;;;-5.64;88.84
12073;BME280;6098;49.004;8.372;2022-12-18T07:56:40;101783.39;;;-5.58;89.56
12073;BME280;6098;49.004;8.372;2022-12-18T08:11:29;101801.81;;;-5.59;89.41
12073;BME280;6098;49.004;8.372;2022-12-18T08:26:18;101801.86;;;-5.50;89.58
12073;BME280;6098;49.004;8.372;2022-12-18T08:41:08;101774.37;;;-5.40;89.48
12073;BME280;6098;49.004;8.372;2022-12-18T08:55:56;101755.36;;;-5.32;88.21
12073;BME280;6098;49.004;8.372;2022-12-18T09:10:44;101729.83;;;-5.16;87.75
12073;BME280;6098;49.004;8.372;2022-12-18T09:25:34;101756.36;;;-5.02;86.69
12073;BME280;6098;49.004;8.372;2022-12-18T09:40:24;101809.53;;;-4.98;86.04
12073;BME280;6098;49.004;8.372;2022-12-18T10:10:27;101820.28;;;-4.51;85.29
12073;BME280;6098;49.004;8.372;2022-12-18T10:25:26;101810.61;;;-4.55;85.19
12073;BME280;6098;49.004;8.372;2022-12-18T10:40:18;101796.37;;;-4.46;84.30
12073;BME280;6098;49.004;8.372;2022-12-18T10:55:12;101787.50;;;-4.41;86.16
12073;BME280;6098;49.004;8.372;2022-12-18T11:10:00;101794.91;;;-4.20;86.02
12073;BME280;6098;49.004;8.372;2022-12-18T11:40:00;101765.67;;;-3.87;85.18
12073;BME280;6098;49.004;8.372;2022-12-18T11:54:56;101752.84;;;-3.73;84.27
12073;BME280;6098;49.004;8.372;2022-12-18T12:40:17;101732.83;;;-3.45;83.62
12073;BME280;6098;49.004;8.372;2022-12-18T12:55:07;101732.52;;;-3.31;82.93
12073;BME280;6098;49.004;8.372;2022-12-18T13:55:31;101640.44;;;-2.72;83.42
12073;BME280;6098;49.004;8.372;2022-12-18T14:10:21;101645.58;;;-2.74;83.42
12073;BME280;6098;49.004;8.372;2022-12-18T14:40:04;101635.88;;;-2.67;84.02
12073;BME280;6098;49.004;8.372;2022-12-18T14:54:54;101625.67;;;-2.75;84.36
12073;BME280;6098;49.004;8.372;2022-12-18T15:09:44;101621.13;;;-2.93;85.24
12073;BME280;6098;49.004;8.372;2022-12-18T15:24:33;101624.73;;;-3.01;86.32
12073;BME280;6098;49.004;8.372;2022-12-18T15:39:22;101613.34;;;-3.05;87.04
12073;BME280;6098;49.004;8.372;2022-12-18T15:54:12;101615.93;;;-3.05;87.19
12073;BME280;6098;49.004;8.372;2022-12-18T16:09:00;101619.38;;;-3.06;87.48
12073;BME280;6098;49.004;8.372;2022-12-18T16:23:50;101619.06;;;-3.02;87.23
12073;BME280;6098;49.004;8.372;2022-12-18T16:38:39;101611.28;;;-3.02;87.60
12073;BME280;6098;49.004;8.372;2022-12-18T16:53:27;101608.68;;;-3.15;87.17
12073;BME280;6098;49.004;8.372;2022-12-18T17:08:17;101595.44;;;-3.22;87.55
12073;BME280;6098;49.004;8.372;2022-12-18T17:23:07;101585.91;;;-3.23;87.30
12073;BME280;6098;49.004;8.372;2022-12-18T17:37:56;101588.38;;;-3.26;87.38
12073;BME280;6098;49.004;8.372;2022-12-18T17:52:45;101586.50;;;-3.30;87.42
12073;BME280;6098;49.004;8.372;2022-12-18T18:07:34;101579.38;;;-3.36;86.88
12073;BME280;6098;49.004;8.372;2022-12-18T18:22:24;101605.22;;;-3.38;87.17
12073;BME280;6098;49.004;8.372;2022-12-18T18:37:13;101588.50;;;-3.35;87.21
12073;BME280;6098;49.004;8.372;2022-12-18T18:52:03;101551.45;;;-3.32;87.66
12073;BME280;6098;49.004;8.372;2022-12-18T19:06:54;101536.03;;;-3.28;87.73
12073;BME280;6098;49.004;8.372;2022-12-18T19:21:43;101526.24;;;-3.24;87.99
12073;BME280;6098;49.004;8.372;2022-12-18T19:36:35;101516.31;;;-3.11;87.93
12073;BME280;6098;49.004;8.372;2022-12-18T19:51:24;101514.83;;;-3.04;87.98
12073;BME280;6098;49.004;8.372;2022-12-18T20:06:23;101505.94;;;-2.86;88.25
12073;BME280;6098;49.004;8.372;2022-12-18T20:21:15;101526.18;;;-2.75;87.76
12073;BME280;6098;49.004;8.372;2022-12-18T20:36:05;101524.33;;;-2.66;86.96
12073;BME280;6098;49.004;8.372;2022-12-18T21:05:55;101511.02;;;-2.76;87.40
12073;BME280;6098;49.004;8.372;2022-12-18T21:20:44;101479.84;;;-2.77;87.30
12073;BME280;6098;49.004;8.372;2022-12-18T21:35:34;101496.83;;;-2.73;87.77
12073;BME280;6098;49.004;8.372;2022-12-18T21:50:24;101447.81;;;-2.65;87.46
12073;BME280;6098;49.004;8.372;2022-12-18T22:05:12;101480.01;;;-2.59;87.43
12073;BME280;6098;49.004;8.372;2022-12-18T22:20:03;101495.13;;;-2.46;87.23
12073;BME280;6098;49.004;8.372;2022-12-18T22:34:52;101517.92;;;-2.36;86.82
12073;BME280;6098;49.004;8.372;2022-12-18T22:49:43;101518.23;;;-2.26;86.69
12073;BME280;6098;49.004;8.372;2022-12-18T23:04:32;101499.98;;;-2.29;87.23
12073;BME280;6098;49.004;8.372;2022-12-18T23:19:22;101501.84;;;-2.25;87.39
12073;BME280;6098;49.004;8.372;2022-12-18T23:34:12;101482.97;;;-2.20;86.81
12073;BME280;6098;49.004;8.372;2022-12-18T23:49:02;101463.05;;;-2.05;86.73
